Time;durP1;ratioP1;P1;durP2;ratioP2;P2;SDS_P1;SDS_P2;PMS_P1;PMS_P2;Temp;Humidity;BMP_temperature;BMP_pressure;BME280_temperature;BME280_humidity;BME280_pressure;Samples;Min_cycle;Max_cycle;Signal;HPM_P1;HPM_P2
2023/05/07 00:00:56;;;;;;;0.88;0.73;;;;;;;20.11;100.00;101665.59;10431844;28;20049;-78
2023/05/07 00:05:58;;;;;;;0.77;0.63;;;;;;;19.40;100.00;101666.44;10437984;28;20107;-78
2023/05/07 00:11:00;;;;;;;0.93;0.30;;;;;;;19.30;100.00;101662.94;10436262;28;20057;-78
2023/05/07 00:16:02;;;;;;;5.07;0.50;;;;;;;19.62;100.00;101654.25;10440821;28;20033;-78
2023/05/07 00:21:04;;;;;;;0.47;0.47;;;;;;;19.80;100.00;101652.50;10449688;28;20075;-79
2023/05/07 00:26:06;;;;;;;0.75;0.52;;;;;;;19.60;100.00;101650.78;10457789;28;20049;-78
2023/05/07 00:31:08;;;;;;;0.28;0.25;;;;;;;19.23;100.00;101648.13;10439956;28;20611;-78
2023/05/07 00:36:09;;;;;;;3.15;0.73;;;;;;;19.40;100.00;101644.69;10440308;28;20061;-78
2023/05/07 00:41:11;;;;;;;0.38;0.35;;;;;;;19.67;100.00;101638.56;10439823;28;20069;-77
2023/05/07 00:46:13;;;;;;;0.68;0.60;;;;;;;19.37;100.00;101632.47;10437712;28;20048;-79
2023/05/07 00:51:18;;;;;;;1.23;0.95;;;;;;;18.84;100.00;101639.28;10425711;28;20107;-79
2023/05/07 00:56:21;;;;;;;1.67;0.82;;;;;;;19.13;100.00;101628.97;10426321;28;20090;-79
2023/05/07 01:01:23;;;;;;;0.45;0.30;;;;;;;19.11;100.00;101621.97;10436146;28;20412;-78
2023/05/07 01:06:27;;;;;;;2.30;0.80;;;;;;;18.74;100.00;101619.22;10421791;28;20053;-79
2023/05/07 01:11:29;;;;;;;0.80;0.80;;;;;;;18.50;100.00;101607.88;10419979;28;20049;-80
2023/05/07 01:16:31;;;;;;;0.30;0.20;;;;;;;18.88;100.00;101604.47;10436366;28;20049;-79
2023/05/07 01:21:34;;;;;;;0.43;0.43;;;;;;;18.62;100.00;101601.78;10448828;28;20546;-79
2023/05/07 01:26:38;;;;;;;0.17;0.17;;;;;;;17.93;100.00;101610.97;10406179;28;20048;-79
2023/05/07 01:31:41;;;;;;;0.93;0.80;;;;;;;18.45;100.00;101599.13;10430987;28;20053;-78
2023/05/07 01:36:44;;;;;;;0.52;0.40;;;;;;;18.61;100.00;101611.38;10430027;28;20508;-78
2023/05/07 01:41:46;;;;;;;0.30;0.30;;;;;;;18.74;100.00;101606.19;10441669;28;20387;-79
2023/05/07 01:46:49;;;;;;;0.47;0.40;;;;;;;18.41;100.00;101613.03;10429734;28;20411;-79
2023/05/07 01:51:51;;;;;;;0.60;0.60;;;;;;;18.63;100.00;101614.88;10429823;28;20052;-78
2023/05/07 01:56:53;;;;;;;0.73;0.65;;;;;;;18.78;100.00;101613.19;10435585;28;20037;-79
2023/05/07 02:01:55;;;;;;;1.60;0.77;;;;;;;18.21;100.00;101621.59;10440968;28;20079;-79
2023/05/07 02:06:57;;;;;;;0.25;0.20;;;;;;;18.22;100.00;101618.13;10457017;28;20056;-79
2023/05/07 02:11:59;;;;;;;0.22;0.22;;;;;;;18.13;100.00;101618.09;10445762;28;20044;-78
2023/05/07 02:17:03;;;;;;;0.63;0.57;;;;;;;17.99;100.00;101616.25;10445692;28;20051;-79
2023/05/07 02:22:07;;;;;;;0.43;0.43;;;;;;;18.44;100.00;101613.91;10460167;28;20048;-78
2023/05/07 02:27:09;;;;;;;0.85;0.77;;;;;;;18.13;100.00;101618.09;10440878;28;20081;-78
2023/05/07 02:32:11;;;;;;;1.42;1.00;;;;;;;18.30;100.00;101612.97;10437193;28;20546;-78
2023/05/07 02:37:13;;;;;;;1.13;0.60;;;;;;;18.31;100.00;101618.19;10456697;28;20037;-79
2023/05/07 02:42:15;;;;;;;1.10;0.77;;;;;;;18.38;100.00;101619.97;10429541;28;20512;-79
2023/05/07 02:47:17;;;;;;;0.20;0.20;;;;;;;18.19;100.00;101626.81;10437126;28;20581;-79
2023/05/07 02:52:19;;;;;;;0.32;0.32;;;;;;;17.92;100.00;101611.84;10437013;28;20060;-78
2023/05/07 02:57:21;;;;;;;1.30;0.85;;;;;;;17.51;100.00;101609.81;10438962;28;20049;-79
2023/05/07 03:02:23;;;;;;;2.42;0.98;;;;;;;17.02;100.00;101602.41;10420861;28;20284;-78
2023/05/07 03:07:29;;;;;;;1.85;0.77;;;;;;;17.19;100.00;101610.38;10444418;28;20479;-79
2023/05/07 03:12:32;;;;;;;0.57;0.32;;;;;;;17.32;100.00;101627.00;10436046;28;20056;-79
2023/05/07 03:17:33;;;;;;;3.03;1.08;;;;;;;17.38;100.00;101625.34;10436651;28;20033;-79
2023/05/07 03:22:35;;;;;;;1.25;0.60;;;;;;;17.34;100.00;101626.16;10421866;28;20056;-79
2023/05/07 03:27:37;;;;;;;0.38;0.38;;;;;;;17.15;100.00;101626.84;10436470;28;20033;-79
2023/05/07 03:32:40;;;;;;;0.77;0.70;;;;;;;17.08;100.00;101628.50;10436583;28;20032;-79
2023/05/07 03:37:45;;;;;;;0.40;0.40;;;;;;;17.12;100.00;101625.94;10434836;28;20048;-79
2023/05/07 03:42:48;;;;;;;1.75;0.88;;;;;;;17.39;100.00;101623.59;10435478;28;20037;-79
2023/05/07 03:47:54;;;;;;;0.55;0.35;;;;;;;17.43;100.00;101625.34;10413450;28;20072;-79
2023/05/07 03:52:56;;;;;;;0.95;0.70;;;;;;;16.93;100.00;101624.00;10417570;28;20073;-79
2023/05/07 03:57:59;;;;;;;1.27;0.77;;;;;;;17.35;100.00;101621.84;10436029;28;20033;-79
2023/05/07 04:03:04;;;;;;;0.20;0.20;;;;;;;17.75;100.00;101625.66;10412903;28;20416;-78
2023/05/07 04:08:07;;;;;;;0.47;0.40;;;;;;;17.10;100.00;101622.44;10435727;28;20408;-78
2023/05/07 04:13:19;;;;;;;0.88;0.73;;;;;;;16.95;100.00;101630.09;10414489;28;20538;-78
2023/05/07 04:18:21;;;;;;;1.02;0.90;;;;;;;17.45;100.00;101628.84;10450706;28;20083;-78
2023/05/07 04:23:23;;;;;;;1.65;1.08;;;;;;;17.69;100.00;101638.59;10432784;28;20056;-77
2023/05/07 04:28:26;;;;;;;0.73;0.70;;;;;;;17.73;100.00;101644.72;10416523;28;20055;-78
2023/05/07 04:33:28;;;;;;;1.13;0.80;;;;;;;17.46;100.00;101646.22;10433842;28;20041;-78
2023/05/07 04:38:32;;;;;;;4.10;0.75;;;;;;;17.71;100.00;101642.09;10439769;28;20036;-78
2023/05/07 04:43:36;;;;;;;1.80;0.98;;;;;;;17.64;100.00;101653.34;10415118;28;20564;-78
2023/05/07 04:48:37;;;;;;;2.90;0.80;;;;;;;17.77;100.00;101642.16;10432469;28;20041;-78
2023/05/07 04:53:41;;;;;;;2.47;1.55;;;;;;;18.01;100.00;101640.63;10450097;28;20439;-79
2023/05/07 04:58:43;;;;;;;0.80;0.52;;;;;;;17.97;100.00;101644.09;10448782;28;20542;-79
2023/05/07 05:03:45;;;;;;;3.20;1.50;;;;;;;17.80;100.00;101646.50;10431611;28;20049;-79
2023/05/07 05:08:47;;;;;;;0.80;0.80;;;;;;;17.61;100.00;101661.13;10428808;28;20386;-78
2023/05/07 05:13:49;;;;;;;0.85;0.60;;;;;;;18.20;100.00;101670.28;10418613;28;20534;-79
2023/05/07 05:18:54;;;;;;;1.13;0.80;;;;;;;18.10;100.00;101670.22;10432282;28;20429;-80
2023/05/07 05:23:57;;;;;;;1.92;1.20;;;;;;;17.93;100.00;101665.72;10431562;28;20068;-79
2023/05/07 05:29:00;;;;;;;0.73;0.68;;;;;;;18.04;100.00;101671.94;10431914;28;20033;-78
2023/05/07 05:34:03;;;;;;;1.90;1.10;;;;;;;18.03;100.00;101667.59;10434844;28;20045;-78
2023/05/07 05:39:06;;;;;;;1.10;1.00;;;;;;;18.22;100.00;101683.34;10434072;28;20534;-76
2023/05/07 05:44:08;;;;;;;2.28;1.02;;;;;;;17.76;100.00;101683.84;10434427;28;20107;-77
2023/05/07 05:49:10;;;;;;;2.65;1.38;;;;;;;18.05;100.00;101684.13;10417843;28;20470;-76
2023/05/07 05:54:13;;;;;;;1.52;0.93;;;;;;;18.59;100.00;101683.56;10434096;28;20041;-78
2023/05/07 05:59:17;;;;;;;1.02;0.93;;;;;;;18.23;100.00;101683.38;10417992;28;20052;-77
2023/05/07 06:04:19;;;;;;;2.03;1.23;;;;;;;17.88;100.00;101696.09;10433747;28;20165;-78
2023/05/07 06:09:21;;;;;;;2.38;0.90;;;;;;;18.67;100.00;101702.72;10439571;28;20132;-78
2023/05/07 06:14:23;;;;;;;1.92;1.35;;;;;;;18.03;100.00;101691.03;10435325;28;20045;-78
2023/05/07 06:19:26;;;;;;;2.63;1.15;;;;;;;18.30;100.00;101697.31;10435006;28;20044;-77
2023/05/07 06:24:28;;;;;;;2.53;1.17;;;;;;;18.47;100.00;101706.97;10434898;28;20053;-76
2023/05/07 06:29:33;;;;;;;1.50;1.17;;;;;;;17.85;100.00;101711.72;10451322;28;20056;-76
2023/05/07 06:34:39;;;;;;;1.65;1.27;;;;;;;18.10;100.00;101706.72;10433352;28;20071;-77
2023/05/07 06:39:41;;;;;;;0.70;0.68;;;;;;;18.22;100.00;101709.41;10412625;28;20076;-77
2023/05/07 06:44:43;;;;;;;2.20;1.20;;;;;;;18.63;100.00;101714.03;10425904;28;20044;-76
2023/05/07 06:49:47;;;;;;;2.22;1.67;;;;;;;18.92;100.00;101723.78;10438897;28;20084;-76
2023/05/07 06:54:51;;;;;;;1.20;0.95;;;;;;;18.52;100.00;101727.03;10439119;28;20095;-76
2023/05/07 06:59:55;;;;;;;1.88;0.82;;;;;;;18.95;100.00;101721.16;10421896;28;20041;-78
2023/05/07 07:04:57;;;;;;;2.00;1.65;;;;;;;18.90;100.00;101735.91;10435368;28;20076;-77
2023/05/07 07:09:59;;;;;;;2.70;1.52;;;;;;;19.63;100.00;101725.72;10435184;28;20047;-77
2023/05/07 07:15:03;;;;;;;1.75;1.20;;;;;;;18.58;100.00;101726.16;10434228;28;20037;-76
2023/05/07 07:20:06;;;;;;;5.13;1.67;;;;;;;18.70;100.00;101726.25;10422502;28;20128;-78
2023/05/07 07:25:09;;;;;;;3.17;1.95;;;;;;;19.74;100.00;101718.75;10433609;28;20029;-77
2023/05/07 07:36:16;;;;;;;4.50;1.50;;;;;;;19.39;100.00;101718.72;10457029;28;20041;-79
2023/05/07 07:41:19;;;;;;;0.88;0.80;;;;;;;19.59;100.00;101716.09;10429035;28;20037;-78
2023/05/07 07:46:21;;;;;;;1.38;0.73;;;;;;;19.70;100.00;101722.22;10433100;28;20458;-79
2023/05/07 07:51:23;;;;;;;2.42;1.50;;;;;;;20.07;100.00;101729.22;10448775;28;20040;-80
2023/05/07 07:56:25;;;;;;;1.95;1.40;;;;;;;19.79;100.00;101731.81;10430984;28;20045;-81
2023/05/07 08:01:29;;;;;;;1.55;1.05;;;;;;;20.03;100.00;101715.28;10415685;28;20488;-79
2023/05/07 08:06:32;;;;;;;1.63;1.48;;;;;;;20.45;100.00;101723.97;10435131;28;20117;-80
2023/05/07 08:11:59;;;;;;;1.30;1.02;;;;;;;20.74;100.00;101723.03;10437903;28;20056;-80
2023/05/07 08:17:01;;;;;;;1.23;0.65;;;;;;;20.70;100.00;101728.25;10441439;28;20167;-80
2023/05/07 08:22:05;;;;;;;1.88;1.08;;;;;;;20.38;100.00;101737.06;10429861;28;20098;-77
2023/05/07 08:27:08;;;;;;;1.58;1.38;;;;;;;20.61;100.00;101730.03;10429795;28;20506;-79
2023/05/07 08:32:10;;;;;;;1.25;0.90;;;;;;;21.54;100.00;101723.50;10440458;28;20550;-80
2023/05/07 08:37:11;;;;;;;1.38;0.55;;;;;;;22.09;100.00;101727.47;10443692;28;20080;-79
2023/05/07 08:42:17;;;;;;;1.33;0.77;;;;;;;21.67;100.00;101725.19;10408072;28;20044;-79
2023/05/07 08:47:20;;;;;;;1.23;0.80;;;;;;;23.37;100.00;101724.31;10430167;28;20099;-79
2023/05/07 08:52:24;;;;;;;1.75;1.38;;;;;;;23.68;100.00;101716.81;10427519;28;20166;-79
2023/05/07 08:57:26;;;;;;;1.75;1.25;;;;;;;23.42;100.00;101723.31;10425534;28;20484;-79
2023/05/07 09:02:30;;;;;;;3.13;1.08;;;;;;;21.91;100.00;101727.66;10441837;28;20485;-77
2023/05/07 09:07:32;;;;;;;1.52;1.02;;;;;;;21.81;100.00;101732.09;10432255;28;20748;-78
2023/05/07 09:12:36;;;;;;;1.25;0.95;;;;;;;22.32;100.00;101734.25;10437328;28;20106;-79
2023/05/07 09:17:41;;;;;;;1.63;0.80;;;;;;;24.44;100.00;101714.66;10424997;28;20416;-77
2023/05/07 09:22:44;;;;;;;1.40;0.77;;;;;;;22.97;100.00;101720.44;10423141;28;20049;-78
2023/05/07 09:27:49;;;;;;;2.40;1.35;;;;;;;24.15;100.00;101716.06;10424016;28;20139;-78
2023/05/07 09:32:50;;;;;;;0.80;0.52;;;;;;;24.30;100.00;101715.78;10425930;28;20545;-79
2023/05/07 09:37:58;;;;;;;1.23;0.88;;;;;;;25.56;100.00;101710.53;10430542;28;20500;-78
2023/05/07 09:43:11;;;;;;;2.08;0.77;;;;;;;24.61;100.00;101722.22;10427472;28;20045;-78
2023/05/07 09:48:18;;;;;;;9.65;1.55;;;;;;;24.12;100.00;101719.63;10436151;28;20091;-79
2023/05/07 09:53:22;;;;;;;1.77;0.55;;;;;;;25.89;100.00;101714.09;10439042;28;20128;-80
2023/05/07 09:58:26;;;;;;;2.42;1.20;;;;;;;24.08;100.00;101716.19;10420333;28;20048;-78
2023/05/07 10:03:31;;;;;;;0.77;0.77;;;;;;;25.50;100.00;101719.47;10440913;28;20049;-78
2023/05/07 10:08:39;;;;;;;1.25;1.08;;;;;;;26.33;100.00;101712.97;10439621;28;20151;-79
2023/05/07 10:13:43;;;;;;;1.10;0.52;;;;;;;24.43;100.00;101721.66;10436422;28;20056;-78
2023/05/07 10:18:46;;;;;;;1.25;1.08;;;;;;;24.44;100.00;101727.81;10423724;28;20055;-79
2023/05/07 10:24:00;;;;;;;0.88;0.77;;;;;;;25.96;100.00;101712.19;10449282;28;20083;-79
2023/05/07 10:29:14;;;;;;;0.95;0.68;;;;;;;25.27;100.00;101715.56;10462217;28;20503;-79
2023/05/07 10:34:23;;;;;;;1.23;1.05;;;;;;;25.77;100.00;101715.28;10459620;28;20052;-77
2023/05/07 10:39:28;;;;;;;4.65;1.35;;;;;;;27.01;100.00;101716.34;10427108;28;20041;-77
2023/05/07 10:44:30;;;;;;;3.10;1.17;;;;;;;25.48;100.00;101723.91;10440448;28;20408;-78
2023/05/07 10:49:44;;;;;;;1.07;0.70;;;;;;;26.86;100.00;101707.97;10439885;28;20045;-78
2023/05/07 10:55:26;;;;;;;3.33;1.27;;;;;;;26.05;100.00;101713.69;10443539;28;20045;-79
2023/05/07 11:00:40;;;;;;;0.52;0.38;;;;;;;26.23;100.00;101705.34;10400055;28;20147;-79
2023/05/07 11:05:46;;;;;;;1.60;0.80;;;;;;;27.51;100.00;101694.53;10424889;28;20087;-78
2023/05/07 11:10:59;;;;;;;0.40;0.40;;;;;;;26.97;98.92;101704.16;10436385;28;20374;-77
2023/05/07 11:16:24;;;;;;;1.00;0.77;;;;;;;27.48;100.00;101695.50;10422321;28;20072;-78
2023/05/07 11:21:41;;;;;;;0.40;0.32;;;;;;;27.72;95.14;101692.97;10432043;28;20053;-79
2023/05/07 11:26:53;;;;;;;0.40;0.30;;;;;;;26.99;96.20;101703.19;10417581;28;20428;-79
2023/05/07 11:31:59;;;;;;;0.68;0.30;;;;;;;26.05;100.00;101708.41;10442817;28;20144;-79
2023/05/07 11:37:06;;;;;;;1.35;1.05;;;;;;;26.36;99.85;101702.34;10438528;28;20107;-79
2023/05/07 11:42:38;;;;;;;0.50;0.50;;;;;;;25.54;100.00;101713.22;10447560;28;20439;-79
2023/05/07 11:47:41;;;;;;;0.32;0.30;;;;;;;25.18;100.00;101721.06;10421811;28;20049;-80
2023/05/07 11:52:53;;;;;;;0.75;0.38;;;;;;;27.29;98.53;101704.94;10442645;28;20049;-79
2023/05/07 11:57:55;;;;;;;0.50;0.22;;;;;;;26.95;96.00;101711.25;10439402;28;20103;-79
2023/05/07 12:03:03;;;;;;;0.65;0.60;;;;;;;26.88;100.00;101710.59;10420018;28;20135;-79
2023/05/07 12:08:05;;;;;;;0.67;0.47;;;;;;;26.96;100.00;101702.41;10442418;28;20094;-78
2023/05/07 12:13:24;;;;;;;0.63;0.63;;;;;;;27.00;100.00;101704.03;10441647;28;20040;-78
2023/05/07 12:18:30;;;;;;;0.03;0.03;;;;;;;27.40;96.11;101708.09;10458197;28;20124;-78
2023/05/07 12:23:32;;;;;;;0.57;0.30;;;;;;;26.08;95.15;101708.38;10422972;28;20041;-77
2023/05/07 12:28:40;;;;;;;1.45;0.55;;;;;;;28.80;94.24;101696.25;10440137;28;20037;-79
2023/05/07 12:33:42;;;;;;;0.55;0.43;;;;;;;28.30;94.98;101699.81;10436854;28;20555;-78
2023/05/07 12:38:44;;;;;;;0.88;0.57;;;;;;;26.02;95.39;101708.53;10449386;28;20045;-78
2023/05/07 12:43:46;;;;;;;0.47;0.40;;;;;;;27.75;90.69;101698.16;10447245;28;20037;-78
2023/05/07 12:48:48;;;;;;;3.03;0.30;;;;;;;26.77;94.70;101702.94;10435954;28;20055;-78
2023/05/07 12:53:49;;;;;;;1.45;0.75;;;;;;;27.14;92.98;101707.16;10451125;28;20048;-80
2023/05/07 12:58:51;;;;;;;1.17;0.43;;;;;;;27.94;96.34;101713.41;10453118;28;20451;-79
2023/05/07 13:03:52;;;;;;;1.20;0.80;;;;;;;26.84;98.70;101712.47;10454031;28;20122;-79
2023/05/07 13:08:54;;;;;;;1.25;0.88;;;;;;;25.90;100.00;101715.84;10441915;28;20049;-79
2023/05/07 13:13:56;;;;;;;1.55;0.32;;;;;;;26.89;99.52;101723.75;10435193;28;20057;-79
2023/05/07 13:18:58;;;;;;;1.15;1.05;;;;;;;26.69;96.64;101721.66;10435849;28;20044;-79
2023/05/07 13:24:00;;;;;;;1.30;0.60;;;;;;;26.64;100.00;101720.06;10437376;28;20060;-80
2023/05/07 13:29:02;;;;;;;1.48;0.73;;;;;;;25.45;100.00;101734.53;10452458;28;20033;-79
2023/05/07 13:34:03;;;;;;;0.65;0.65;;;;;;;25.96;100.00;101720.09;10453316;28;20126;-79
2023/05/07 13:39:06;;;;;;;0.35;0.35;;;;;;;26.83;100.00;101729.22;10452311;28;20066;-79
2023/05/07 13:44:07;;;;;;;0.30;0.22;;;;;;;26.35;100.00;101727.91;10452191;28;20081;-79
2023/05/07 13:49:11;;;;;;;3.53;1.00;;;;;;;25.56;100.00;101715.81;10434446;28;20036;-79
2023/05/07 13:54:12;;;;;;;0.40;0.40;;;;;;;26.70;100.00;101722.50;10419450;28;20079;-80
2023/05/07 13:59:14;;;;;;;0.73;0.60;;;;;;;25.38;99.30;101725.00;10433234;28;20130;-79
2023/05/07 14:04:16;;;;;;;0.10;0.10;;;;;;;25.28;100.00;101722.56;10398658;28;20054;-79
2023/05/07 14:09:18;;;;;;;0.45;0.30;;;;;;;25.51;100.00;101721.19;10422835;28;20041;-79
2023/05/07 14:14:19;;;;;;;0.20;0.20;;;;;;;25.09;100.00;101727.41;10439345;28;20119;-80
2023/05/07 14:19:22;;;;;;;0.88;0.45;;;;;;;25.23;100.00;101736.78;10432917;28;20041;-79
2023/05/07 14:24:24;;;;;;;1.95;0.82;;;;;;;25.26;100.00;101740.22;10430736;28;20052;-80
2023/05/07 14:29:42;;;;;;;0.55;0.45;;;;;;;24.71;100.00;101743.09;10431911;28;20056;-80
2023/05/07 14:34:44;;;;;;;2.28;0.77;;;;;;;24.72;100.00;101746.63;10448792;28;20057;-80
2023/05/07 14:39:46;;;;;;;2.85;0.60;;;;;;;24.58;100.00;101744.22;10423084;28;20098;-80
2023/05/07 14:44:52;;;;;;;0.47;0.47;;;;;;;24.04;100.00;101750.47;10431893;28;20451;-79
2023/05/07 14:49:54;;;;;;;1.20;0.77;;;;;;;23.97;100.00;101748.84;10415192;28;20045;-80
2023/05/07 14:54:56;;;;;;;0.77;0.77;;;;;;;24.31;100.00;101749.09;10439018;28;20049;-79
2023/05/07 14:59:57;;;;;;;2.33;0.75;;;;;;;23.70;100.00;101757.13;10448273;28;20377;-79
2023/05/07 15:04:59;;;;;;;0.60;0.60;;;;;;;24.04;100.00;101758.38;10444565;28;20488;-79
2023/05/07 15:10:00;;;;;;;0.63;0.43;;;;;;;24.43;100.00;101758.53;10436693;28;20053;-79
2023/05/07 15:15:02;;;;;;;1.23;0.40;;;;;;;23.94;100.00;101760.25;10436927;28;20464;-78
2023/05/07 15:20:05;;;;;;;2.83;0.85;;;;;;;23.72;100.00;101773.72;10454561;28;20095;-78
2023/05/07 15:25:09;;;;;;;0.13;0.13;;;;;;;23.18;100.00;101773.63;10435853;28;20561;-79
2023/05/07 15:30:12;;;;;;;0.57;0.50;;;;;;;23.40;100.00;101764.56;10454395;28;20036;-79
2023/05/07 15:35:14;;;;;;;1.98;0.25;;;;;;;23.47;100.00;101770.59;10436126;28;20053;-79
2023/05/07 15:40:16;;;;;;;1.75;1.33;;;;;;;23.23;100.00;101774.44;10423719;28;20416;-78
2023/05/07 15:45:17;;;;;;;0.40;0.40;;;;;;;23.65;100.00;101774.72;10453826;28;20137;-80
2023/05/07 15:50:19;;;;;;;0.28;0.28;;;;;;;23.60;100.00;101771.28;10435391;28;20056;-80
2023/05/07 15:55:21;;;;;;;0.52;0.45;;;;;;;23.49;100.00;101767.97;10437128;28;20057;-79
2023/05/07 16:00:27;;;;;;;1.17;0.85;;;;;;;23.54;100.00;101772.25;10427341;28;20049;-79
2023/05/07 16:05:28;;;;;;;0.20;0.20;;;;;;;23.48;100.00;101766.22;10450751;28;20451;-79
2023/05/07 16:10:33;;;;;;;1.30;0.95;;;;;;;23.27;100.00;101758.59;10452271;28;20385;-78
2023/05/07 16:15:35;;;;;;;1.38;0.80;;;;;;;23.23;100.00;101751.63;10433383;28;20581;-79
2023/05/07 16:20:38;;;;;;;0.95;0.80;;;;;;;23.19;100.00;101764.88;10451761;28;20049;-79
2023/05/07 16:25:40;;;;;;;0.75;0.57;;;;;;;23.34;100.00;101772.56;10434143;28;20408;-78
2023/05/07 16:30:42;;;;;;;0.80;0.50;;;;;;;23.70;100.00;101786.06;10424858;28;20095;-78
2023/05/07 16:35:46;;;;;;;0.93;0.38;;;;;;;23.68;100.00;101782.56;10451199;28;20043;-79
2023/05/07 16:40:48;;;;;;;0.60;0.40;;;;;;;23.63;100.00;101780.91;10420883;28;20065;-79
2023/05/07 16:45:49;;;;;;;1.08;0.47;;;;;;;24.21;100.00;101790.53;10432339;28;20095;-78
2023/05/07 16:50:51;;;;;;;0.05;0.05;;;;;;;24.38;100.00;101800.78;10432468;28;20508;-78
2023/05/07 16:55:55;;;;;;;0.40;0.28;;;;;;;23.69;100.00;101821.16;10432515;28;20424;-79
2023/05/07 17:00:57;;;;;;;1.60;0.50;;;;;;;22.81;100.00;101833.59;10412135;28;20044;-79
2023/05/07 17:05:58;;;;;;;0.55;0.43;;;;;;;22.49;100.00;101834.78;10434943;28;20041;-79
2023/05/07 17:11:00;;;;;;;0.20;0.20;;;;;;;22.28;100.00;101834.94;10450589;28;20091;-79
2023/05/07 17:16:02;;;;;;;0.25;0.17;;;;;;;22.64;100.00;101851.28;10415801;28;20558;-79
2023/05/07 17:21:06;;;;;;;0.40;0.40;;;;;;;21.22;100.00;101877.44;10417612;28;20386;-77
2023/05/07 17:26:12;;;;;;;0.40;0.40;;;;;;;21.19;100.00;101874.81;10435212;28;20507;-77
2023/05/07 17:31:14;;;;;;;0.63;0.50;;;;;;;20.54;100.00;101874.91;10435191;28;20053;-79
2023/05/07 17:36:16;;;;;;;0.93;0.70;;;;;;;20.04;100.00;101887.06;10435365;28;20194;-78
2023/05/07 17:41:17;;;;;;;0.85;0.60;;;;;;;20.36;100.00;101883.63;10435068;28;20053;-79
2023/05/07 17:46:19;;;;;;;1.63;1.13;;;;;;;20.81;100.00;101883.66;10449212;28;20475;-78
2023/05/07 17:51:24;;;;;;;0.30;0.30;;;;;;;20.40;100.00;101887.97;10431555;28;20044;-79
2023/05/07 17:56:26;;;;;;;0.32;0.32;;;;;;;20.42;100.00;101890.59;10427408;28;20041;-79
2023/05/07 18:01:28;;;;;;;0.60;0.40;;;;;;;20.02;100.00;101893.16;10435709;28;20049;-78
2023/05/07 18:06:30;;;;;;;0.32;0.32;;;;;;;20.01;100.00;101891.41;10413193;28;20041;-77
2023/05/07 18:11:32;;;;;;;1.10;0.65;;;;;;;19.80;100.00;101903.53;10421993;28;20293;-77
2023/05/07 18:16:34;;;;;;;1.02;0.45;;;;;;;21.33;100.00;101894.91;10419529;28;20088;-76
2023/05/07 18:21:36;;;;;;;1.55;0.50;;;;;;;20.83;100.00;101902.84;10418723;28;20094;-77
2023/05/07 18:26:40;;;;;;;0.75;0.75;;;;;;;21.40;100.00;101896.63;10438817;28;20033;-76
2023/05/07 18:31:42;;;;;;;1.10;0.73;;;;;;;20.75;100.00;101888.88;10455647;28;20044;-76
2023/05/07 18:36:43;;;;;;;0.70;0.57;;;;;;;20.78;100.00;101899.34;10439143;28;20041;-76
2023/05/07 18:41:47;;;;;;;2.53;1.02;;;;;;;20.71;100.00;101902.81;10445763;28;20107;-76
2023/05/07 18:46:49;;;;;;;0.52;0.30;;;;;;;20.76;100.00;101901.09;10462338;28;20492;-80
2023/05/07 18:51:52;;;;;;;1.08;0.80;;;;;;;21.83;100.00;101904.31;10430820;28;20041;-81
2023/05/07 18:56:53;;;;;;;0.73;0.73;;;;;;;21.16;100.00;101905.41;10431930;28;20099;-80
2023/05/07 19:01:55;;;;;;;1.17;0.47;;;;;;;20.94;100.00;101908.06;10437028;28;20060;-80
2023/05/07 19:06:56;;;;;;;1.13;0.88;;;;;;;21.03;100.00;101917.66;10455190;28;20067;-80
2023/05/07 19:11:58;;;;;;;0.90;0.20;;;;;;;20.92;100.00;101913.31;10441189;28;20057;-80
2023/05/07 19:17:00;;;;;;;1.00;0.80;;;;;;;21.12;100.00;101914.16;10452745;28;20072;-80
2023/05/07 19:22:01;;;;;;;1.55;0.52;;;;;;;20.81;100.00;101919.44;10454135;28;20049;-79
2023/05/07 19:27:03;;;;;;;1.85;0.77;;;;;;;20.56;100.00;101930.75;10447826;28;20037;-79
2023/05/07 19:32:10;;;;;;;1.25;0.60;;;;;;;21.13;100.00;101932.47;10436634;28;20613;-80
2023/05/07 19:37:12;;;;;;;0.60;0.47;;;;;;;21.14;100.00;101938.63;10454136;28;20041;-80
2023/05/07 19:42:14;;;;;;;0.40;0.30;;;;;;;20.63;100.00;101949.06;10453781;28;20040;-79
2023/05/07 19:47:16;;;;;;;0.22;0.22;;;;;;;21.15;100.00;101951.72;10435290;28;20080;-80
2023/05/07 19:52:18;;;;;;;1.65;0.68;;;;;;;22.10;100.00;101954.88;10452161;28;20048;-80
2023/05/07 19:57:19;;;;;;;0.93;0.20;;;;;;;21.94;100.00;101966.34;10451779;28;20083;-80
2023/05/07 20:02:21;;;;;;;0.95;0.77;;;;;;;20.99;100.00;101965.69;10434425;28;20139;-80
2023/05/07 20:07:23;;;;;;;0.25;0.22;;;;;;;21.55;100.00;101969.97;10452097;28;20037;-80
2023/05/07 20:12:24;;;;;;;0.30;0.22;;;;;;;21.63;100.00;101967.34;10436217;28;20048;-80
2023/05/07 20:17:26;;;;;;;1.25;0.77;;;;;;;21.04;100.00;101970.06;10441396;28;20042;-79
2023/05/07 20:22:31;;;;;;;0.75;0.40;;;;;;;21.21;100.00;101988.38;10419951;28;20057;-79
2023/05/07 20:27:34;;;;;;;0.25;0.25;;;;;;;21.21;100.00;101993.63;10420477;28;20049;-79
2023/05/07 20:32:35;;;;;;;0.68;0.32;;;;;;;21.67;100.00;101986.56;10439630;28;20049;-79
2023/05/07 20:37:42;;;;;;;0.13;0.13;;;;;;;21.07;100.00;101991.00;10438967;28;20041;-80
2023/05/07 20:42:43;;;;;;;1.83;0.43;;;;;;;21.00;100.00;101998.88;10433904;28;20531;-79
2023/05/07 20:47:45;;;;;;;1.10;0.77;;;;;;;20.71;100.00;101989.22;10449290;28;20106;-80
2023/05/07 20:52:47;;;;;;;0.28;0.28;;;;;;;21.67;100.00;101991.81;10429117;28;20044;-80
2023/05/07 20:57:48;;;;;;;1.20;0.57;;;;;;;21.30;100.00;101995.34;10420434;28;20091;-80
2023/05/07 21:02:50;;;;;;;0.00;0.00;;;;;;;21.72;100.00;102005.78;10438420;28;20047;-75
2023/05/07 21:07:51;;;;;;;1.23;0.65;;;;;;;20.18;100.00;102009.19;10439479;28;20547;-76
2023/05/07 21:12:53;;;;;;;0.90;0.40;;;;;;;20.38;100.00;102002.28;10439755;28;20060;-76
2023/05/07 21:17:55;;;;;;;1.50;0.90;;;;;;;20.37;100.00;102002.25;10439318;28;20139;-76
2023/05/07 21:22:56;;;;;;;2.75;0.30;;;;;;;20.35;100.00;102006.63;10422215;28;20049;-76
2023/05/07 21:27:58;;;;;;;0.73;0.73;;;;;;;19.97;100.00;102016.06;10438723;28;20045;-76
2023/05/07 21:33:00;;;;;;;0.35;0.30;;;;;;;20.16;100.00;102014.41;10438930;28;20098;-76
2023/05/07 21:38:02;;;;;;;1.02;0.68;;;;;;;20.27;100.00;102017.94;10438795;28;20480;-76
2023/05/07 21:43:04;;;;;;;0.10;0.10;;;;;;;20.18;100.00;102017.03;10438240;28;20493;-76
2023/05/07 21:48:06;;;;;;;0.20;0.20;;;;;;;20.55;100.00;102012.78;10438252;28;20050;-76
2023/05/07 21:53:10;;;;;;;0.22;0.17;;;;;;;19.62;100.00;102017.59;10438880;28;20049;-76
2023/05/07 21:58:12;;;;;;;0.75;0.40;;;;;;;19.46;100.00;102015.78;10421870;28;20053;-76
2023/05/07 22:03:13;;;;;;;1.45;1.10;;;;;;;19.54;100.00;102023.66;10437811;28;20106;-76
2023/05/07 22:08:15;;;;;;;1.25;0.38;;;;;;;19.95;100.00;102016.06;10396691;28;20095;-76
2023/05/07 22:13:17;;;;;;;1.65;0.80;;;;;;;20.19;100.00;102030.13;10441932;28;20447;-76
2023/05/07 22:18:19;;;;;;;2.25;0.50;;;;;;;20.02;100.00;102026.56;10455828;28;20455;-76
2023/05/07 22:23:20;;;;;;;0.17;0.17;;;;;;;20.24;100.00;102028.38;10445925;28;20044;-77
2023/05/07 22:28:22;;;;;;;0.60;0.20;;;;;;;20.13;100.00;102030.09;10463859;28;20048;-76
2023/05/07 22:33:24;;;;;;;0.10;0.10;;;;;;;20.04;100.00;102032.66;10445461;28;20041;-78
2023/05/07 22:38:26;;;;;;;0.50;0.35;;;;;;;20.19;100.00;102029.22;10437613;28;20099;-79
2023/05/07 22:43:27;;;;;;;0.25;0.25;;;;;;;19.55;100.00;102035.84;10419933;28;20057;-79
2023/05/07 22:48:31;;;;;;;2.63;0.70;;;;;;;19.14;100.00;102042.50;10423046;28;20081;-79
2023/05/07 22:53:32;;;;;;;0.70;0.50;;;;;;;19.48;100.00;102040.16;10433317;28;20559;-79
2023/05/07 22:58:36;;;;;;;1.65;0.70;;;;;;;19.23;100.00;102039.09;10436760;28;20076;-79
2023/05/07 23:03:38;;;;;;;0.75;0.55;;;;;;;19.21;100.00;102052.16;10454831;28;20095;-79